sensor_id;sensor_type;location;lat;lon;timestamp;temperature;humidity
8103;DHT22;4094;49.948;11.574;2022-12-29T00:01:10;9.70;62.70
8103;DHT22;4094;49.948;11.574;2022-12-29T00:03:39;9.70;62.80
8103;DHT22;4094;49.948;11.574;2022-12-29T00:06:08;9.70;63.40
8103;DHT22;4094;49.948;11.574;2022-12-29T00:08:40;9.70;63.30
8103;DHT22;4094;49.948;11.574;2022-12-29T00:11:11;9.70;63.20
8103;DHT22;4094;49.948;11.574;2022-12-29T00:13:41;9.70;63.30
8103;DHT22;4094;49.948;11.574;2022-12-29T00:16:28;9.70;63.40
8103;DHT22;4094;49.948;11.574;2022-12-29T00:18:58;9.70;63.70
8103;DHT22;4094;49.948;11.574;2022-12-29T00:21:28;9.60;63.60
8103;DHT22;4094;49.948;11.574;2022-12-29T00:24:18;9.70;63.90
8103;DHT22;4094;49.948;11.574;2022-12-29T00:27:14;9.70;64.10
8103;DHT22;4094;49.948;11.574;2022-12-29T00:30:04;9.70;64.30
8103;DHT22;4094;49.948;11.574;2022-12-29T00:32:53;9.70;65.00
8103;DHT22;4094;49.948;11.574;2022-12-29T00:35:44;9.70;64.60
8103;DHT22;4094;49.948;11.574;2022-12-29T00:38:14;9.70;64.60
8103;DHT22;4094;49.948;11.574;2022-12-29T00:41:01;9.70;64.60
8103;DHT22;4094;49.948;11.574;2022-12-29T00:43:48;9.70;64.90
8103;DHT22;4094;49.948;11.574;2022-12-29T00:46:38;9.70;64.70
8103;DHT22;4094;49.948;11.574;2022-12-29T00:49:10;9.70;64.80
8103;DHT22;4094;49.948;11.574;2022-12-29T00:51:58;9.70;64.90
8103;DHT22;4094;49.948;11.574;2022-12-29T00:54:30;9.70;64.80
8103;DHT22;4094;49.948;11.574;2022-12-29T00:57:00;9.80;64.80
8103;DHT22;4094;49.948;11.574;2022-12-29T00:59:32;9.80;65.10
8103;DHT22;4094;49.948;11.574;2022-12-29T01:02:00;9.80;65.00
8103;DHT22;4094;49.948;11.574;2022-12-29T01:04:29;9.90;65.00
8103;DHT22;4094;49.948;11.574;2022-12-29T01:07:02;9.90;65.00
8103;DHT22;4094;49.948;11.574;2022-12-29T01:09:32;9.90;65.30
8103;DHT22;4094;49.948;11.574;2022-12-29T01:12:18;9.90;65.10
8103;DHT22;4094;49.948;11.574;2022-12-29T01:15:12;9.90;64.90
8103;DHT22;4094;49.948;11.574;2022-12-29T01:17:42;10.00;65.00
8103;DHT22;4094;49.948;11.574;2022-12-29T01:20:12;10.00;64.70
8103;DHT22;4094;49.948;11.574;2022-12-29T01:22:41;10.00;64.70
8103;DHT22;4094;49.948;11.574;2022-12-29T01:25:11;10.00;64.70
8103;DHT22;4094;49.948;11.574;2022-12-29T01:27:40;10.00;64.70
8103;DHT22;4094;49.948;11.574;2022-12-29T01:30:12;10.00;64.70
8103;DHT22;4094;49.948;11.574;2022-12-29T01:32:41;10.00;64.70
8103;DHT22;4094;49.948;11.574;2022-12-29T01:35:10;10.00;64.80
8103;DHT22;4094;49.948;11.574;2022-12-29T01:37:39;10.10;64.90
8103;DHT22;4094;49.948;11.574;2022-12-29T01:40:09;10.00;64.80
8103;DHT22;4094;49.948;11.574;2022-12-29T01:42:38;10.10;65.00
8103;DHT22;4094;49.948;11.574;2022-12-29T01:45:11;10.10;64.80
8103;DHT22;4094;49.948;11.574;2022-12-29T01:47:43;10.10;64.90
8103;DHT22;4094;49.948;11.574;2022-12-29T01:50:17;10.10;64.80
8103;DHT22;4094;49.948;11.574;2022-12-29T01:52:51;10.10;64.80
8103;DHT22;4094;49.948;11.574;2022-12-29T01:55:23;10.00;64.70
8103;DHT22;4094;49.948;11.574;2022-12-29T01:57:54;10.10;64.80
8103;DHT22;4094;49.948;11.574;2022-12-29T02:00:26;10.00;65.00
8103;DHT22;4094;49.948;11.574;2022-12-29T02:02:55;10.00;65.10
8103;DHT22;4094;49.948;11.574;2022-12-29T02:05:27;10.00;65.20
8103;DHT22;4094;49.948;11.574;2022-12-29T02:07:57;10.00;65.20
8103;DHT22;4094;49.948;11.574;2022-12-29T02:10:30;10.10;65.20
8103;DHT22;4094;49.948;11.574;2022-12-29T02:12:59;10.10;65.20
8103;DHT22;4094;49.948;11.574;2022-12-29T02:15:35;10.10;65.20
8103;DHT22;4094;49.948;11.574;2022-12-29T02:18:18;10.20;65.20
8103;DHT22;4094;49.948;11.574;2022-12-29T02:21:19;10.20;65.10
8103;DHT22;4094;49.948;11.574;2022-12-29T02:24:15;10.30;65.10
8103;DHT22;4094;49.948;11.574;2022-12-29T02:27:09;10.40;65.10
8103;DHT22;4094;49.948;11.574;2022-12-29T02:30:00;10.40;64.90
8103;DHT22;4094;49.948;11.574;2022-12-29T02:32:37;10.40;64.80
8103;DHT22;4094;49.948;11.574;2022-12-29T02:35:15;10.50;64.90
8103;DHT22;4094;49.948;11.574;2022-12-29T02:37:52;10.60;64.80
8103;DHT22;4094;49.948;11.574;2022-12-29T02:40:31;10.60;64.80
8103;DHT22;4094;49.948;11.574;2022-12-29T02:43:11;10.60;64.60
8103;DHT22;4094;49.948;11.574;2022-12-29T02:45:49;10.70;64.60
8103;DHT22;4094;49.948;11.574;2022-12-29T02:48:27;10.70;64.50
8103;DHT22;4094;49.948;11.574;2022-12-29T02:51:00;10.70;64.40
8103;DHT22;4094;49.948;11.574;2022-12-29T02:53:32;10.80;64.30
8103;DHT22;4094;49.948;11.574;2022-12-29T02:56:21;10.90;64.30
8103;DHT22;4094;49.948;11.574;2022-12-29T02:58:50;10.90;64.20
8103;DHT22;4094;49.948;11.574;2022-12-29T03:01:29;11.00;63.90
8103;DHT22;4094;49.948;11.574;2022-12-29T03:04:14;11.00;63.80
8103;DHT22;4094;49.948;11.574;2022-12-29T03:06:52;11.10;63.60
8103;DHT22;4094;49.948;11.574;2022-12-29T03:09:31;11.20;63.60
8103;DHT22;4094;49.948;11.574;2022-12-29T03:12:10;11.20;63.40
8103;DHT22;4094;49.948;11.574;2022-12-29T03:14:49;11.30;63.40
8103;DHT22;4094;49.948;11.574;2022-12-29T03:17:45;11.40;63.00
8103;DHT22;4094;49.948;11.574;2022-12-29T03:20:21;11.40;63.10
8103;DHT22;4094;49.948;11.574;2022-12-29T03:22:59;11.50;62.80
8103;DHT22;4094;49.948;11.574;2022-12-29T03:25:36;11.60;62.60
8103;DHT22;4094;49.948;11.574;2022-12-29T03:28:13;11.60;62.40
8103;DHT22;4094;49.948;11.574;2022-12-29T03:30:46;11.70;62.50
8103;DHT22;4094;49.948;11.574;2022-12-29T03:33:20;11.70;62.20
8103;DHT22;4094;49.948;11.574;2022-12-29T03:35:55;11.70;61.90
8103;DHT22;4094;49.948;11.574;2022-12-29T03:38:34;11.80;61.80
8103;DHT22;4094;49.948;11.574;2022-12-29T03:41:09;11.80;61.80
8103;DHT22;4094;49.948;11.574;2022-12-29T03:43:40;11.80;61.60
8103;DHT22;4094;49.948;11.574;2022-12-29T03:46:10;11.90;61.60
8103;DHT22;4094;49.948;11.574;2022-12-29T03:48:41;11.90;61.50
8103;DHT22;4094;49.948;11.574;2022-12-29T03:51:12;11.90;61.40
8103;DHT22;4094;49.948;11.574;2022-12-29T03:53:41;11.90;60.90
8103;DHT22;4094;49.948;11.574;2022-12-29T03:56:10;11.90;60.60
8103;DHT22;4094;49.948;11.574;2022-12-29T03:58:39;11.90;60.60
8103;DHT22;4094;49.948;11.574;2022-12-29T04:01:15;12.00;60.70
8103;DHT22;4094;49.948;11.574;2022-12-29T04:03:45;12.00;60.60
8103;DHT22;4094;49.948;11.574;2022-12-29T04:06:16;12.00;60.50
8103;DHT22;4094;49.948;11.574;2022-12-29T04:08:49;12.00;60.50
8103;DHT22;4094;49.948;11.574;2022-12-29T04:11:18;12.00;60.70
8103;DHT22;4094;49.948;11.574;2022-12-29T04:13:47;12.00;60.70
8103;DHT22;4094;49.948;11.574;2022-12-29T04:16:20;12.10;60.80
8103;DHT22;4094;49.948;11.574;2022-12-29T04:18:49;12.10;60.80
8103;DHT22;4094;49.948;11.574;2022-12-29T04:21:19;12.10;60.80
8103;DHT22;4094;49.948;11.574;2022-12-29T04:23:48;12.10;60.90
8103;DHT22;4094;49.948;11.574;2022-12-29T04:26:17;12.10;61.80
8103;DHT22;4094;49.948;11.574;2022-12-29T04:28:54;12.10;60.70
8103;DHT22;4094;49.948;11.574;2022-12-29T04:31:42;12.20;60.80
8103;DHT22;4094;49.948;11.574;2022-12-29T04:34:11;12.10;60.90
8103;DHT22;4094;49.948;11.574;2022-12-29T04:36:42;12.10;60.80
8103;DHT22;4094;49.948;11.574;2022-12-29T04:39:12;12.20;60.70
8103;DHT22;4094;49.948;11.574;2022-12-29T04:41:42;12.10;60.50
8103;DHT22;4094;49.948;11.574;2022-12-29T04:44:16;12.10;60.70
8103;DHT22;4094;49.948;11.574;2022-12-29T04:47:06;12.20;60.50
8103;DHT22;4094;49.948;11.574;2022-12-29T04:49:51;12.10;60.30
8103;DHT22;4094;49.948;11.574;2022-12-29T04:52:39;12.10;60.30
8103;DHT22;4094;49.948;11.574;2022-12-29T04:55:10;12.10;60.20
8103;DHT22;4094;49.948;11.574;2022-12-29T04:57:40;12.10;60.40
8103;DHT22;4094;49.948;11.574;2022-12-29T05:00:14;12.10;60.40
8103;DHT22;4094;49.948;11.574;2022-12-29T05:02:45;12.10;60.40
8103;DHT22;4094;49.948;11.574;2022-12-29T05:05:15;12.20;60.50
8103;DHT22;4094;49.948;11.574;2022-12-29T05:07:50;12.20;60.50
8103;DHT22;4094;49.948;11.574;2022-12-29T05:10:19;12.20;60.70
8103;DHT22;4094;49.948;11.574;2022-12-29T05:12:51;12.10;60.80
8103;DHT22;4094;49.948;11.574;2022-12-29T05:15:21;12.10;60.80
8103;DHT22;4094;49.948;11.574;2022-12-29T05:17:50;12.10;60.90
8103;DHT22;4094;49.948;11.574;2022-12-29T05:20:19;12.10;61.00
8103;DHT22;4094;49.948;11.574;2022-12-29T05:22:50;12.00;61.30
8103;DHT22;4094;49.948;11.574;2022-12-29T05:25:20;11.90;61.30
8103;DHT22;4094;49.948;11.574;2022-12-29T05:28:06;11.90;61.20
8103;DHT22;4094;49.948;11.574;2022-12-29T05:30:48;11.90;61.40
8103;DHT22;4094;49.948;11.574;2022-12-29T05:33:19;11.80;61.50
8103;DHT22;4094;49.948;11.574;2022-12-29T05:35:50;11.80;61.50
8103;DHT22;4094;49.948;11.574;2022-12-29T05:38:21;11.70;61.60
8103;DHT22;4094;49.948;11.574;2022-12-29T05:40:50;11.60;61.40
8103;DHT22;4094;49.948;11.574;2022-12-29T05:43:38;11.60;61.50
8103;DHT22;4094;49.948;11.574;2022-12-29T05:46:27;11.60;61.80
8103;DHT22;4094;49.948;11.574;2022-12-29T05:49:25;11.50;61.80
8103;DHT22;4094;49.948;11.574;2022-12-29T05:52:13;11.50;62.00
8103;DHT22;4094;49.948;11.574;2022-12-29T05:54:44;11.50;62.00
8103;DHT22;4094;49.948;11.574;2022-12-29T05:57:16;11.40;62.00
8103;DHT22;4094;49.948;11.574;2022-12-29T05:59:50;11.40;62.00
8103;DHT22;4094;49.948;11.574;2022-12-29T06:02:20;11.30;62.10
8103;DHT22;4094;49.948;11.574;2022-12-29T06:04:50;11.30;61.80
8103;DHT22;4094;49.948;11.574;2022-12-29T06:07:19;11.30;61.80
8103;DHT22;4094;49.948;11.574;2022-12-29T06:09:50;11.20;61.80
8103;DHT22;4094;49.948;11.574;2022-12-29T06:12:20;11.10;61.80
8103;DHT22;4094;49.948;11.574;2022-12-29T06:14:51;11.10;62.10
8103;DHT22;4094;49.948;11.574;2022-12-29T06:17:20;11.00;61.90
8103;DHT22;4094;49.948;11.574;2022-12-29T06:19:51;10.90;61.90
8103;DHT22;4094;49.948;11.574;2022-12-29T06:22:20;10.90;61.90
8103;DHT22;4094;49.948;11.574;2022-12-29T06:24:51;10.80;61.80
8103;DHT22;4094;49.948;11.574;2022-12-29T06:27:20;10.80;61.80
8103;DHT22;4094;49.948;11.574;2022-12-29T06:29:51;10.70;62.00
8103;DHT22;4094;49.948;11.574;2022-12-29T06:32:20;10.70;62.20
8103;DHT22;4094;49.948;11.574;2022-12-29T06:34:52;10.70;62.30
8103;DHT22;4094;49.948;11.574;2022-12-29T06:37:21;10.60;62.30
8103;DHT22;4094;49.948;11.574;2022-12-29T06:39:52;10.60;62.70
8103;DHT22;4094;49.948;11.574;2022-12-29T06:42:21;10.60;62.70
8103;DHT22;4094;49.948;11.574;2022-12-29T06:45:06;10.60;62.70
8103;DHT22;4094;49.948;11.574;2022-12-29T06:47:36;10.60;62.80
8103;DHT22;4094;49.948;11.574;2022-12-29T06:50:06;10.60;62.70
8103;DHT22;4094;49.948;11.574;2022-12-29T06:52:35;10.70;62.70
8103;DHT22;4094;49.948;11.574;2022-12-29T06:55:06;10.60;62.60
8103;DHT22;4094;49.948;11.574;2022-12-29T06:57:36;10.70;62.80
8103;DHT22;4094;49.948;11.574;2022-12-29T07:00:06;10.70;62.60
8103;DHT22;4094;49.948;11.574;2022-12-29T07:02:36;10.70;62.40
8103;DHT22;4094;49.948;11.574;2022-12-29T07:05:05;10.70;62.10
8103;DHT22;4094;49.948;11.574;2022-12-29T07:07:35;10.70;62.30
8103;DHT22;4094;49.948;11.574;2022-12-29T07:10:06;10.80;62.30
8103;DHT22;4094;49.948;11.574;2022-12-29T07:12:35;10.80;62.10
8103;DHT22;4094;49.948;11.574;2022-12-29T07:15:05;10.80;62.10
8103;DHT22;4094;49.948;11.574;2022-12-29T07:17:35;10.90;62.10
8103;DHT22;4094;49.948;11.574;2022-12-29T07:20:05;10.90;61.90
8103;DHT22;4094;49.948;11.574;2022-12-29T07:22:35;10.90;61.90
8103;DHT22;4094;49.948;11.574;2022-12-29T07:25:06;10.90;61.90
8103;DHT22;4094;49.948;11.574;2022-12-29T07:27:35;11.00;62.20
8103;DHT22;4094;49.948;11.574;2022-12-29T07:30:05;11.00;62.00
8103;DHT22;4094;49.948;11.574;2022-12-29T07:32:34;11.00;62.10
8103;DHT22;4094;49.948;11.574;2022-12-29T07:35:04;11.00;61.90
8103;DHT22;4094;49.948;11.574;2022-12-29T07:37:33;11.00;61.80
8103;DHT22;4094;49.948;11.574;2022-12-29T07:40:06;11.00;61.60
8103;DHT22;4094;49.948;11.574;2022-12-29T07:42:35;11.00;61.40
8103;DHT22;4094;49.948;11.574;2022-12-29T07:45:08;10.90;61.20
8103;DHT22;4094;49.948;11.574;2022-12-29T07:48:08;10.90;61.50
8103;DHT22;4094;49.948;11.574;2022-12-29T07:50:37;10.90;61.60
8103;DHT22;4094;49.948;11.574;2022-12-29T07:53:06;10.90;61.60
8103;DHT22;4094;49.948;11.574;2022-12-29T07:55:38;10.80;61.50
8103;DHT22;4094;49.948;11.574;2022-12-29T07:58:10;10.80;61.30
8103;DHT22;4094;49.948;11.574;2022-12-29T08:00:39;10.70;61.50
8103;DHT22;4094;49.948;11.574;2022-12-29T08:03:08;10.70;61.70
8103;DHT22;4094;49.948;11.574;2022-12-29T08:05:37;10.60;62.00
8103;DHT22;4094;49.948;11.574;2022-12-29T08:08:06;10.60;62.20
8103;DHT22;4094;49.948;11.574;2022-12-29T08:10:37;10.60;62.10
8103;DHT22;4094;49.948;11.574;2022-12-29T08:13:06;10.60;62.20
8103;DHT22;4094;49.948;11.574;2022-12-29T08:15:37;10.60;62.10
8103;DHT22;4094;49.948;11.574;2022-12-29T08:18:06;10.60;62.60
8103;DHT22;4094;49.948;11.574;2022-12-29T08:20:35;10.60;62.60
8103;DHT22;4094;49.948;11.574;2022-12-29T08:23:04;10.60;62.60
8103;DHT22;4094;49.948;11.574;2022-12-29T08:25:34;10.70;62.70
8103;DHT22;4094;49.948;11.574;2022-12-29T08:28:04;10.70;62.80
8103;DHT22;4094;49.948;11.574;2022-12-29T08:30:33;10.70;63.00
8103;DHT22;4094;49.948;11.574;2022-12-29T08:33:03;10.70;63.00
8103;DHT22;4094;49.948;11.574;2022-12-29T08:35:32;10.80;63.10
8103;DHT22;4094;49.948;11.574;2022-12-29T08:38:01;10.80;63.10
8103;DHT22;4094;49.948;11.574;2022-12-29T08:40:30;10.80;63.10
8103;DHT22;4094;49.948;11.574;2022-12-29T08:43:00;10.90;63.10
8103;DHT22;4094;49.948;11.574;2022-12-29T08:45:31;10.90;63.20
8103;DHT22;4094;49.948;11.574;2022-12-29T08:48:00;11.00;63.10
8103;DHT22;4094;49.948;11.574;2022-12-29T08:50:29;11.10;63.20
8103;DHT22;4094;49.948;11.574;2022-12-29T08:52:58;11.10;63.20
8103;DHT22;4094;49.948;11.574;2022-12-29T08:55:28;11.20;63.00
8103;DHT22;4094;49.948;11.574;2022-12-29T08:57:57;11.30;62.90
8103;DHT22;4094;49.948;11.574;2022-12-29T09:00:26;11.40;62.60
8103;DHT22;4094;49.948;11.574;2022-12-29T09:02:58;11.40;62.50
8103;DHT22;4094;49.948;11.574;2022-12-29T09:05:28;11.50;62.30
8103;DHT22;4094;49.948;11.574;2022-12-29T09:07:57;11.60;62.20
8103;DHT22;4094;49.948;11.574;2022-12-29T09:10:26;11.70;62.20
8103;DHT22;4094;49.948;11.574;2022-12-29T09:12:55;11.80;61.90
8103;DHT22;4094;49.948;11.574;2022-12-29T09:15:25;11.90;61.80
8103;DHT22;4094;49.948;11.574;2022-12-29T09:17:54;12.00;61.80
8103;DHT22;4094;49.948;11.574;2022-12-29T09:20:24;12.10;61.60
8103;DHT22;4094;49.948;11.574;2022-12-29T09:22:56;12.20;61.30
8103;DHT22;4094;49.948;11.574;2022-12-29T09:25:25;12.20;61.10
8103;DHT22;4094;49.948;11.574;2022-12-29T09:27:54;12.30;61.10
8103;DHT22;4094;49.948;11.574;2022-12-29T09:30:24;12.30;61.70
8103;DHT22;4094;49.948;11.574;2022-12-29T09:32:53;12.50;60.70
8103;DHT22;4094;49.948;11.574;2022-12-29T09:35:24;12.50;60.70
8103;DHT22;4094;49.948;11.574;2022-12-29T09:37:53;12.50;60.20
8103;DHT22;4094;49.948;11.574;2022-12-29T09:40:26;12.60;60.40
8103;DHT22;4094;49.948;11.574;2022-12-29T09:43:19;12.60;60.10
8103;DHT22;4094;49.948;11.574;2022-12-29T09:45:55;12.60;60.00
8103;DHT22;4094;49.948;11.574;2022-12-29T09:48:30;12.70;60.20
8103;DHT22;4094;49.948;11.574;2022-12-29T09:51:05;12.70;59.70
8103;DHT22;4094;49.948;11.574;2022-12-29T09:53:37;12.80;59.70
8103;DHT22;4094;49.948;11.574;2022-12-29T09:56:11;12.80;59.70
8103;DHT22;4094;49.948;11.574;2022-12-29T09:58:47;12.90;59.60
8103;DHT22;4094;49.948;11.574;2022-12-29T10:01:26;12.90;59.60
8103;DHT22;4094;49.948;11.574;2022-12-29T10:03:57;12.90;59.50
8103;DHT22;4094;49.948;11.574;2022-12-29T10:06:33;13.00;59.50
8103;DHT22;4094;49.948;11.574;2022-12-29T10:09:31;13.00;59.50
8103;DHT22;4094;49.948;11.574;2022-12-29T10:12:13;13.10;59.30
8103;DHT22;4094;49.948;11.574;2022-12-29T10:14:54;13.20;59.40
8103;DHT22;4094;49.948;11.574;2022-12-29T10:17:32;13.20;59.20
8103;DHT22;4094;49.948;11.574;2022-12-29T10:20:15;13.30;59.40
8103;DHT22;4094;49.948;11.574;2022-12-29T10:23:04;13.30;58.70
8103;DHT22;4094;49.948;11.574;2022-12-29T10:25:38;13.40;59.00
8103;DHT22;4094;49.948;11.574;2022-12-29T10:28:15;13.50;58.90
8103;DHT22;4094;49.948;11.574;2022-12-29T10:30:47;13.50;58.50
8103;DHT22;4094;49.948;11.574;2022-12-29T10:33:19;13.60;58.80
8103;DHT22;4094;49.948;11.574;2022-12-29T10:35:51;13.60;58.90
8103;DHT22;4094;49.948;11.574;2022-12-29T10:38:26;13.70;59.00
8103;DHT22;4094;49.948;11.574;2022-12-29T10:41:00;13.80;58.80
8103;DHT22;4094;49.948;11.574;2022-12-29T10:43:31;13.90;59.50
8103;DHT22;4094;49.948;11.574;2022-12-29T10:46:08;14.00;59.00
8103;DHT22;4094;49.948;11.574;2022-12-29T10:48:40;14.10;59.00
8103;DHT22;4094;49.948;11.574;2022-12-29T10:51:20;14.20;59.00
8103;DHT22;4094;49.948;11.574;2022-12-29T10:53:53;14.30;59.00
8103;DHT22;4094;49.948;11.574;2022-12-29T10:56:30;14.40;58.20
8103;DHT22;4094;49.948;11.574;2022-12-29T10:59:06;14.50;58.20
8103;DHT22;4094;49.948;11.574;2022-12-29T11:01:52;14.60;58.10
8103;DHT22;4094;49.948;11.574;2022-12-29T11:04:34;14.70;58.20
8103;DHT22;4094;49.948;11.574;2022-12-29T11:07:04;14.90;58.30
8103;DHT22;4094;49.948;11.574;2022-12-29T11:09:44;15.00;57.50
8103;DHT22;4094;49.948;11.574;2022-12-29T11:12:20;15.20;57.60
8103;DHT22;4094;49.948;11.574;2022-12-29T11:15:02;15.30;57.40
8103;DHT22;4094;49.948;11.574;2022-12-29T11:17:44;15.40;57.20
8103;DHT22;4094;49.948;11.574;2022-12-29T11:20:35;15.60;57.20
8103;DHT22;4094;49.948;11.574;2022-12-29T11:23:22;15.70;56.20
8103;DHT22;4094;49.948;11.574;2022-12-29T11:26:17;15.70;55.60
8103;DHT22;4094;49.948;11.574;2022-12-29T11:28:48;15.70;56.00
8103;DHT22;4094;49.948;11.574;2022-12-29T11:31:40;15.60;56.00
8103;DHT22;4094;49.948;11.574;2022-12-29T11:34:17;15.60;55.80
8103;DHT22;4094;49.948;11.574;2022-12-29T11:36:47;15.50;55.90
8103;DHT22;4094;49.948;11.574;2022-12-29T11:39:29;15.40;56.10
8103;DHT22;4094;49.948;11.574;2022-12-29T11:42:01;15.30;56.10
8103;DHT22;4094;49.948;11.574;2022-12-29T11:44:37;15.30;56.10
8103;DHT22;4094;49.948;11.574;2022-12-29T11:47:12;15.20;56.20
8103;DHT22;4094;49.948;11.574;2022-12-29T11:49:49;15.20;56.40
8103;DHT22;4094;49.948;11.574;2022-12-29T11:52:22;15.10;56.40
8103;DHT22;4094;49.948;11.574;2022-12-29T11:54:53;15.10;56.10
8103;DHT22;4094;49.948;11.574;2022-12-29T11:57:25;15.00;56.10
8103;DHT22;4094;49.948;11.574;2022-12-29T11:59:55;15.00;56.40
8103;DHT22;4094;49.948;11.574;2022-12-29T12:02:32;15.00;56.70
8103;DHT22;4094;49.948;11.574;2022-12-29T12:05:14;14.90;56.50
8103;DHT22;4094;49.948;11.574;2022-12-29T12:07:46;14.90;56.70
8103;DHT22;4094;49.948;11.574;2022-12-29T12:10:28;14.80;56.70
8103;DHT22;4094;49.948;11.574;2022-12-29T12:13:05;14.80;56.90
8103;DHT22;4094;49.948;11.574;2022-12-29T12:15:42;14.80;57.30
8103;DHT22;4094;49.948;11.574;2022-12-29T12:18:32;14.70;57.30
8103;DHT22;4094;49.948;11.574;2022-12-29T12:21:08;14.60;57.60
8103;DHT22;4094;49.948;11.574;2022-12-29T12:23:52;14.60;57.70
8103;DHT22;4094;49.948;11.574;2022-12-29T12:26:32;14.60;57.90
8103;DHT22;4094;49.948;11.574;2022-12-29T12:29:10;14.60;58.00
8103;DHT22;4094;49.948;11.574;2022-12-29T12:31:46;14.70;57.80
8103;DHT22;4094;49.948;11.574;2022-12-29T12:34:20;14.70;57.70
8103;DHT22;4094;49.948;11.574;2022-12-29T12:37:02;14.70;57.60
8103;DHT22;4094;49.948;11.574;2022-12-29T12:39:43;14.70;57.60
8103;DHT22;4094;49.948;11.574;2022-12-29T12:42:27;14.70;57.70
8103;DHT22;4094;49.948;11.574;2022-12-29T12:45:19;14.70;57.40
8103;DHT22;4094;49.948;11.574;2022-12-29T12:47:58;14.80;57.70
8103;DHT22;4094;49.948;11.574;2022-12-29T12:50:49;14.70;57.50
8103;DHT22;4094;49.948;11.574;2022-12-29T12:53:39;14.70;57.70
8103;DHT22;4094;49.948;11.574;2022-12-29T12:59:26;14.60;57.80
8103;DHT22;4094;49.948;11.574;2022-12-29T13:02:02;14.60;57.90
8103;DHT22;4094;49.948;11.574;2022-12-29T13:04:57;14.60;57.90
8103;DHT22;4094;49.948;11.574;2022-12-29T13:07:40;14.60;58.10
8103;DHT22;4094;49.948;11.574;2022-12-29T13:10:33;14.50;58.10
8103;DHT22;4094;49.948;11.574;2022-12-29T13:16:20;14.50;58.10
8103;DHT22;4094;49.948;11.574;2022-12-29T13:18:59;14.50;58.20
8103;DHT22;4094;49.948;11.574;2022-12-29T13:21:48;14.50;58.40
8103;DHT22;4094;49.948;11.574;2022-12-29T13:24:36;14.40;58.40
8103;DHT22;4094;49.948;11.574;2022-12-29T13:27:15;14.50;58.40
8103;DHT22;4094;49.948;11.574;2022-12-29T13:29:54;14.40;58.10
8103;DHT22;4094;49.948;11.574;2022-12-29T13:32:43;14.40;58.30
8103;DHT22;4094;49.948;11.574;2022-12-29T13:35:35;14.50;58.40
8103;DHT22;4094;49.948;11.574;2022-12-29T13:38:11;14.50;58.40
8103;DHT22;4094;49.948;11.574;2022-12-29T13:40:44;14.40;58.20
8103;DHT22;4094;49.948;11.574;2022-12-29T13:43:16;14.50;58.30
8103;DHT22;4094;49.948;11.574;2022-12-29T13:45:57;14.40;58.20
8103;DHT22;4094;49.948;11.574;2022-12-29T13:48:38;14.40;58.30
8103;DHT22;4094;49.948;11.574;2022-12-29T13:51:10;14.40;58.20
8103;DHT22;4094;49.948;11.574;2022-12-29T13:53:57;14.30;58.20
8103;DHT22;4094;49.948;11.574;2022-12-29T13:56:34;14.30;58.30
8103;DHT22;4094;49.948;11.574;2022-12-29T13:59:09;14.30;58.40
8103;DHT22;4094;49.948;11.574;2022-12-29T14:01:43;14.30;58.50
8103;DHT22;4094;49.948;11.574;2022-12-29T14:04:22;14.30;58.50
8103;DHT22;4094;49.948;11.574;2022-12-29T14:07:02;14.30;58.50
8103;DHT22;4094;49.948;11.574;2022-12-29T14:09:45;14.30;58.50
8103;DHT22;4094;49.948;11.574;2022-12-29T14:12:31;14.30;58.60
8103;DHT22;4094;49.948;11.574;2022-12-29T14:15:22;14.20;58.60
8103;DHT22;4094;49.948;11.574;2022-12-29T14:18:14;14.20;58.70
8103;DHT22;4094;49.948;11.574;2022-12-29T14:20:53;14.20;58.80
8103;DHT22;4094;49.948;11.574;2022-12-29T14:23:37;14.20;58.90
8103;DHT22;4094;49.948;11.574;2022-12-29T14:26:13;14.20;59.00
8103;DHT22;4094;49.948;11.574;2022-12-29T14:28:44;14.10;59.00
8103;DHT22;4094;49.948;11.574;2022-12-29T14:31:34;14.20;59.10
8103;DHT22;4094;49.948;11.574;2022-12-29T14:34:30;14.10;59.20
8103;DHT22;4094;49.948;11.574;2022-12-29T14:37:00;14.20;59.40
8103;DHT22;4094;49.948;11.574;2022-12-29T14:39:39;14.10;59.30
8103;DHT22;4094;49.948;11.574;2022-12-29T14:42:16;14.10;59.40
8103;DHT22;4094;49.948;11.574;2022-12-29T14:44:52;14.10;59.40
8103;DHT22;4094;49.948;11.574;2022-12-29T14:47:27;14.10;59.50
8103;DHT22;4094;49.948;11.574;2022-12-29T14:50:05;14.10;59.50
8103;DHT22;4094;49.948;11.574;2022-12-29T14:52:45;14.10;59.50
8103;DHT22;4094;49.948;11.574;2022-12-29T14:55:36;14.10;59.60
8103;DHT22;4094;49.948;11.574;2022-12-29T14:58:13;14.10;59.60
8103;DHT22;4094;49.948;11.574;2022-12-29T15:00:44;14.10;59.70
8103;DHT22;4094;49.948;11.574;2022-12-29T15:03:18;14.10;59.70
8103;DHT22;4094;49.948;11.574;2022-12-29T15:05:50;14.10;59.70
8103;DHT22;4094;49.948;11.574;2022-12-29T15:08:24;14.10;59.80
8103;DHT22;4094;49.948;11.574;2022-12-29T15:10:57;14.10;59.80
8103;DHT22;4094;49.948;11.574;2022-12-29T15:13:34;14.00;59.80
8103;DHT22;4094;49.948;11.574;2022-12-29T15:16:05;14.00;59.90
8103;DHT22;4094;49.948;11.574;2022-12-29T15:18:49;14.00;59.80
8103;DHT22;4094;49.948;11.574;2022-12-29T15:21:23;14.00;59.80
8103;DHT22;4094;49.948;11.574;2022-12-29T15:23:53;14.00;59.90
8103;DHT22;4094;49.948;11.574;2022-12-29T15:26:36;14.00;59.70
8103;DHT22;4094;49.948;11.574;2022-12-29T15:29:29;14.00;59.90
8103;DHT22;4094;49.948;11.574;2022-12-29T15:32:01;14.00;60.70
8103;DHT22;4094;49.948;11.574;2022-12-29T15:34:30;14.00;59.90
8103;DHT22;4094;49.948;11.574;2022-12-29T15:37:05;14.00;59.80
8103;DHT22;4094;49.948;11.574;2022-12-29T15:39:35;14.00;60.00
8103;DHT22;4094;49.948;11.574;2022-12-29T15:42:15;14.00;60.10
8103;DHT22;4094;49.948;11.574;2022-12-29T15:44:46;13.90;60.40
8103;DHT22;4094;49.948;11.574;2022-12-29T15:47:29;13.90;60.40
8103;DHT22;4094;49.948;11.574;2022-12-29T15:50:02;13.90;60.60
8103;DHT22;4094;49.948;11.574;2022-12-29T15:52:33;13.80;60.60
8103;DHT22;4094;49.948;11.574;2022-12-29T15:55:03;13.80;60.80
8103;DHT22;4094;49.948;11.574;2022-12-29T15:57:42;13.80;61.00
8103;DHT22;4094;49.948;11.574;2022-12-29T16:00:22;13.70;61.10
8103;DHT22;4094;49.948;11.574;2022-12-29T16:02:53;13.70;61.30
8103;DHT22;4094;49.948;11.574;2022-12-29T16:05:23;13.70;61.30
8103;DHT22;4094;49.948;11.574;2022-12-29T16:07:55;13.70;61.40
8103;DHT22;4094;49.948;11.574;2022-12-29T16:10:28;13.70;61.50
8103;DHT22;4094;49.948;11.574;2022-12-29T16:13:18;13.60;61.50
8103;DHT22;4094;49.948;11.574;2022-12-29T16:15:49;13.60;61.60
8103;DHT22;4094;49.948;11.574;2022-12-29T16:18:24;13.60;61.70
8103;DHT22;4094;49.948;11.574;2022-12-29T16:20:56;13.60;61.80
8103;DHT22;4094;49.948;11.574;2022-12-29T16:23:28;13.60;61.80
8103;DHT22;4094;49.948;11.574;2022-12-29T16:25:58;13.60;62.10
8103;DHT22;4094;49.948;11.574;2022-12-29T16:28:36;13.60;62.10
8103;DHT22;4094;49.948;11.574;2022-12-29T16:31:18;13.60;62.20
8103;DHT22;4094;49.948;11.574;2022-12-29T16:33:50;13.60;62.20
8103;DHT22;4094;49.948;11.574;2022-12-29T16:36:24;13.60;62.20
8103;DHT22;4094;49.948;11.574;2022-12-29T16:39:19;13.60;62.30
8103;DHT22;4094;49.948;11.574;2022-12-29T16:41:50;13.60;62.40
8103;DHT22;4094;49.948;11.574;2022-12-29T16:44:23;13.60;62.30
8103;DHT22;4094;49.948;11.574;2022-12-29T16:47:18;13.60;62.50